Craig, Colorado
Current Conditions -  °F | °C
As of 7:53 PM on Saturday 24 Jan 2015 (Local Time) from KCAG Reporting Station
Overcast Overcast  
Wind Chill: 27°   Ceiling: 5000
Heat Index: 27°   Visibility: 10mi
Dew Point: 19°   Wind: 0mph
Humidity: 72%   Direction: NA
Pressure: 30.33"   Gusts: NA
Location:  40.51°N, 107.54°W
Report Text: KCAG 250253Z AUTO 00000KT 10SM OVC050 M03/M07 A3033 RMK AO2 SLP347 T10281072 53006 TSNO
Loading
Personal Weather Stations






























Interactive Weather Map New forecast layout! Learn more

10-Day Weather Forecast

Advertisements
Track Severe Weather on mobile